Time;durP1;ratioP1;P1;durP2;ratioP2;P2;SDS_P1;SDS_P2;PMS_P1;PMS_P2;Temp;Humidity;BMP_temperature;BMP_pressure;BME280_temperature;BME280_humidity;BME280_pressure;Samples;Min_cycle;Max_cycle;Signal;HPM_P1;HPM_P2
2021/06/15 00:01:46;;;;;;;11.17;7.13;;;19.50;99.90;;;;;;5019164;28;20206;-77
2021/06/15 00:04:13;;;;;;;11.30;7.57;;;19.40;99.90;;;;;;5014810;28;20543;-77
2021/06/15 00:06:40;;;;;;;11.00;6.97;;;19.30;99.90;;;;;;5003076;28;20285;-77
2021/06/15 00:09:07;;;;;;;11.53;6.60;;;19.40;99.90;;;;;;5017778;28;20254;-77
2021/06/15 00:11:34;;;;;;;11.90;7.13;;;19.40;99.90;;;;;;4989701;28;20243;-77
2021/06/15 00:14:01;;;;;;;7.87;7.07;;;19.70;99.90;;;;;;4988825;28;20203;-77
2021/06/15 00:16:28;;;;;;;7.63;6.87;;;19.80;99.90;;;;;;5020275;28;20260;-76
2021/06/15 00:18:55;;;;;;;12.30;7.10;;;19.70;99.90;;;;;;5002238;28;20218;-77
2021/06/15 00:21:23;;;;;;;10.10;6.80;;;19.70;99.90;;;;;;5001161;28;20243;-77
2021/06/15 00:23:50;;;;;;;11.10;7.07;;;19.70;99.90;;;;;;5016445;28;20252;-76
2021/06/15 00:26:17;;;;;;;13.97;7.60;;;19.50;99.90;;;;;;5000319;28;20231;-76
2021/06/15 00:28:44;;;;;;;9.93;6.67;;;19.60;99.90;;;;;;5017080;28;20199;-76
2021/06/15 00:31:11;;;;;;;9.80;6.83;;;19.50;99.90;;;;;;4997632;28;20268;-76
2021/06/15 00:33:38;;;;;;;9.13;7.00;;;19.40;99.90;;;;;;4998980;28;20243;-76
2021/06/15 00:36:05;;;;;;;11.30;7.47;;;19.60;99.90;;;;;;4987682;28;20232;-76
2021/06/15 00:38:32;;;;;;;11.40;7.40;;;19.60;99.90;;;;;;5004938;28;20616;-78
2021/06/15 00:40:59;;;;;;;10.73;7.70;;;19.50;99.90;;;;;;4995272;28;20249;-77
2021/06/15 00:43:25;;;;;;;12.50;6.83;;;19.50;99.90;;;;;;4996887;28;20231;-77
2021/06/15 00:45:52;;;;;;;12.47;7.67;;;19.60;99.90;;;;;;4977634;28;20209;-77
2021/06/15 00:48:40;;;;;;;11.17;7.47;;;19.40;99.90;;;;;;4982968;28;20212;-76
2021/06/15 00:51:08;;;;;;;7.90;7.00;;;19.50;99.90;;;;;;4997263;28;20618;-77
2021/06/15 00:53:36;;;;;;;9.80;6.70;;;19.40;99.90;;;;;;5011564;28;20221;-77
2021/06/15 00:56:04;;;;;;;10.63;7.17;;;19.50;99.90;;;;;;4993643;28;20294;-78
2021/06/15 00:58:32;;;;;;;8.63;7.00;;;19.40;99.90;;;;;;5010834;28;20695;-77
2021/06/15 01:00:59;;;;;;;9.33;7.73;;;19.30;99.90;;;;;;4976587;28;20292;-77
2021/06/15 01:03:27;;;;;;;10.93;7.93;;;19.10;99.90;;;;;;4982563;28;20207;-77
2021/06/15 01:05:55;;;;;;;12.67;7.77;;;19.00;99.90;;;;;;5011869;28;20200;-77
2021/06/15 01:08:28;;;;;;;14.17;8.07;;;18.90;99.90;;;;;;5003930;28;20235;-77
2021/06/15 01:11:03;;;;;;;11.57;7.40;;;18.80;99.90;;;;;;5010108;28;20742;-77
2021/06/15 01:13:36;;;;;;;10.37;7.87;;;18.90;99.90;;;;;;5008766;28;20350;-78
2021/06/15 01:16:15;;;;;;;10.20;7.37;;;18.80;99.90;;;;;;4999061;28;20834;-77
2021/06/15 01:18:48;;;;;;;13.30;7.53;;;18.80;99.90;;;;;;4994447;28;20222;-77
2021/06/15 01:21:16;;;;;;;9.73;7.07;;;18.80;99.90;;;;;;4996150;28;20202;-77
2021/06/15 01:23:50;;;;;;;10.60;6.93;;;18.90;99.90;;;;;;5003109;28;20260;-76
2021/06/15 01:26:20;;;;;;;9.07;7.30;;;18.90;99.90;;;;;;4998344;28;20200;-76
2021/06/15 01:28:55;;;;;;;8.20;6.40;;;18.60;99.90;;;;;;4994241;28;20230;-76
2021/06/15 01:31:24;;;;;;;8.93;6.33;;;18.60;99.90;;;;;;5002558;28;20265;-78
2021/06/15 01:33:55;;;;;;;8.83;6.37;;;18.70;99.90;;;;;;5003066;28;20215;-77
2021/06/15 01:36:26;;;;;;;8.93;6.40;;;18.70;99.90;;;;;;5029678;28;20601;-77
2021/06/15 01:38:57;;;;;;;9.13;7.23;;;18.60;99.90;;;;;;5013027;28;20293;-77
2021/06/15 01:41:33;;;;;;;10.60;7.27;;;18.60;99.90;;;;;;5013008;28;20257;-77
2021/06/15 01:44:06;;;;;;;9.60;6.57;;;18.50;99.90;;;;;;5015782;28;20305;-77
2021/06/15 01:46:39;;;;;;;9.50;6.90;;;18.30;99.90;;;;;;5012267;28;20229;-77
2021/06/15 01:49:13;;;;;;;8.57;6.67;;;18.30;99.90;;;;;;5014205;28;20276;-76
2021/06/15 01:51:42;;;;;;;9.13;5.97;;;18.30;99.90;;;;;;5007589;28;20873;-76
2021/06/15 01:54:11;;;;;;;12.27;6.93;;;18.40;99.90;;;;;;5034872;28;20208;-77
2021/06/15 01:56:41;;;;;;;8.13;5.47;;;18.60;99.90;;;;;;5003440;28;20276;-77
2021/06/15 01:59:10;;;;;;;7.73;5.70;;;18.60;99.90;;;;;;5012209;28;20227;-77
2021/06/15 02:01:40;;;;;;;6.83;4.93;;;18.50;99.90;;;;;;4995809;28;20336;-77
2021/06/15 02:04:08;;;;;;;9.17;5.23;;;18.60;99.90;;;;;;5029209;28;20211;-77
2021/06/15 02:06:35;;;;;;;8.63;4.80;;;18.50;99.90;;;;;;5011034;28;20255;-77
2021/06/15 02:09:05;;;;;;;7.60;4.90;;;18.40;99.90;;;;;;4998994;28;20275;-77
2021/06/15 02:11:33;;;;;;;7.60;5.33;;;18.50;99.90;;;;;;5014815;28;20193;-78
2021/06/15 02:14:03;;;;;;;8.33;5.10;;;18.70;55.80;;;;;;5015848;28;20301;-77
2021/06/15 02:16:31;;;;;;;10.97;5.20;;;18.60;39.70;;;;;;5018901;28;20246;-77
2021/06/15 02:19:01;;;;;;;8.77;4.70;;;18.40;57.70;;;;;;4996751;28;20190;-77
2021/06/15 02:21:31;;;;;;;5.17;4.53;;;18.50;55.00;;;;;;4997066;28;20283;-77
2021/06/15 02:23:59;;;;;;;5.40;4.23;;;18.70;21.90;;;;;;5012552;28;20253;-77
2021/06/15 02:26:29;;;;;;;7.40;4.77;;;18.40;21.20;;;;;;5010312;28;20612;-77
2021/06/15 02:28:56;;;;;;;4.80;4.27;;;18.30;50.00;;;;;;5004035;28;20571;-77
2021/06/15 02:31:30;;;;;;;6.03;4.53;;;18.20;65.10;;;;;;5001360;28;20599;-77
2021/06/15 02:34:02;;;;;;;6.23;4.23;;;18.50;41.50;;;;;;5015927;28;20309;-78
2021/06/15 02:36:34;;;;;;;6.87;4.80;;;18.70;12.90;;;;;;5002345;28;20264;-77
2021/06/15 02:39:09;;;;;;;5.20;4.67;;;18.70;1.00;;;;;;5007462;28;20201;-77
2021/06/15 02:41:39;;;;;;;8.37;4.60;;;18.80;1.00;;;;;;5010124;28;20251;-76
2021/06/15 02:44:08;;;;;;;7.20;4.60;;;18.80;1.00;;;;;;5007422;28;20209;-76
2021/06/15 02:46:37;;;;;;;9.93;5.70;;;18.80;1.00;;;;;;5009587;28;20227;-76
2021/06/15 02:49:15;;;;;;;7.43;4.63;;;18.60;1.00;;;;;;5007706;28;20202;-76
2021/06/15 02:52:03;;;;;;;7.00;4.60;;;18.80;1.00;;;;;;5009581;28;20208;-77
2021/06/15 02:54:35;;;;;;;6.03;4.43;;;18.80;1.00;;;;;;4994753;28;20205;-77
2021/06/15 02:57:03;;;;;;;6.47;4.40;;;18.90;1.00;;;;;;5007664;28;20217;-78
2021/06/15 02:59:30;;;;;;;6.23;4.37;;;18.80;1.00;;;;;;4991671;28;20243;-77
2021/06/15 03:01:57;;;;;;;6.07;4.50;;;18.70;1.00;;;;;;4996513;28;20779;-77
2021/06/15 03:04:23;;;;;;;8.13;4.83;;;18.50;1.00;;;;;;5009220;28;20328;-76
2021/06/15 03:06:50;;;;;;;5.13;4.40;;;18.40;1.00;;;;;;4988543;28;20227;-76
2021/06/15 03:09:18;;;;;;;5.60;4.67;;;18.20;55.80;;;;;;4999589;28;20338;-76
2021/06/15 03:11:51;;;;;;;5.43;4.60;;;18.30;22.10;;;;;;4994016;28;20207;-76
2021/06/15 03:14:22;;;;;;;8.50;4.80;;;18.30;20.20;;;;;;5016007;28;20224;-76
2021/06/15 03:16:53;;;;;;;9.53;5.43;;;18.50;18.50;;;;;;5018386;28;20197;-77
2021/06/15 03:19:36;;;;;;;6.80;5.20;;;18.40;13.20;;;;;;5006400;28;20630;-77
2021/06/15 03:22:18;;;;;;;5.97;5.07;;;18.20;53.70;;;;;;5005444;28;20574;-78
2021/06/15 03:24:58;;;;;;;9.53;5.03;;;18.20;49.30;;;;;;5009596;28;20208;-77
2021/06/15 03:27:37;;;;;;;8.50;5.07;;;18.10;83.70;;;;;;5009522;28;20230;-77
2021/06/15 03:30:23;;;;;;;7.60;4.73;;;18.10;89.90;;;;;;5019770;28;20328;-77
2021/06/15 03:32:54;;;;;;;6.53;4.80;;;18.20;89.90;;;;;;5008147;28;20328;-77
2021/06/15 03:35:25;;;;;;;6.67;4.77;;;18.30;54.30;;;;;;4998103;28;20229;-78
2021/06/15 03:37:56;;;;;;;5.80;4.70;;;18.30;25.10;;;;;;5021620;28;20668;-77
2021/06/15 03:40:25;;;;;;;6.40;4.43;;;18.20;45.50;;;;;;4991451;28;20273;-78
2021/06/15 03:42:54;;;;;;;7.10;4.67;;;18.10;52.70;;;;;;5007689;28;20241;-78
2021/06/15 03:45:26;;;;;;;8.57;4.70;;;18.20;51.80;;;;;;5005454;28;20200;-77
2021/06/15 03:47:55;;;;;;;6.53;4.30;;;18.20;23.20;;;;;;5006382;28;20304;-77
2021/06/15 03:50:24;;;;;;;6.87;4.90;;;18.20;41.00;;;;;;5028326;28;20209;-77
2021/06/15 03:52:55;;;;;;;8.43;4.13;;;18.20;1.10;;;;;;4995271;28;20254;-77
2021/06/15 03:55:25;;;;;;;5.63;4.87;;;18.20;13.30;;;;;;5007494;28;20229;-77
2021/06/15 03:57:53;;;;;;;6.93;4.90;;;18.20;5.00;;;;;;4995104;28;20195;-78
2021/06/15 04:00:24;;;;;;;5.70;4.47;;;18.10;16.00;;;;;;4986047;28;20508;-77
2021/06/15 04:02:54;;;;;;;8.03;5.23;;;18.10;16.00;;;;;;5008706;28;20895;-77
2021/06/15 04:05:26;;;;;;;6.93;4.23;;;18.30;1.00;;;;;;5005805;28;20675;-77
2021/06/15 04:07:56;;;;;;;6.20;4.40;;;18.30;1.00;;;;;;5010336;28;20203;-77
2021/06/15 04:10:25;;;;;;;7.60;4.03;;;18.40;1.00;;;;;;5006188;28;20210;-78
2021/06/15 04:12:55;;;;;;;5.83;4.10;;;18.30;1.00;;;;;;5027399;28;20719;-77
2021/06/15 04:15:25;;;;;;;6.07;4.23;;;18.20;1.00;;;;;;4997052;28;20206;-77
2021/06/15 04:17:57;;;;;;;6.97;3.73;;;18.20;1.00;;;;;;5035338;28;20199;-78
2021/06/15 04:20:32;;;;;;;5.63;4.03;;;18.50;1.00;;;;;;4994510;28;20283;-78
2021/06/15 04:23:02;;;;;;;5.40;3.70;;;18.50;1.00;;;;;;5012203;28;20268;-79
2021/06/15 04:25:31;;;;;;;7.80;3.97;;;18.60;1.00;;;;;;5010849;28;20223;-78
2021/06/15 04:28:00;;;;;;;6.20;4.07;;;18.50;1.00;;;;;;5028265;28;20201;-78
2021/06/15 04:30:29;;;;;;;5.27;3.60;;;18.30;1.00;;;;;;5023397;28;20201;-78
2021/06/15 04:32:59;;;;;;;6.33;3.73;;;18.30;1.00;;;;;;5015324;28;20255;-78
2021/06/15 04:35:29;;;;;;;5.53;3.50;;;18.10;1.00;;;;;;5006987;28;20232;-78
2021/06/15 04:38:03;;;;;;;5.57;3.50;;;18.20;1.00;;;;;;5001458;28;20255;-77
2021/06/15 04:40:35;;;;;;;4.73;3.40;;;18.20;1.00;;;;;;5004196;28;20193;-77
2021/06/15 04:43:20;;;;;;;4.27;3.10;;;18.30;1.00;;;;;;4994880;28;20206;-77
2021/06/15 04:45:49;;;;;;;5.20;3.57;;;18.50;1.00;;;;;;5009700;28;20194;-77
2021/06/15 04:48:37;;;;;;;5.77;3.20;;;18.50;1.00;;;;;;4990997;28;20268;-77
2021/06/15 04:51:05;;;;;;;4.87;3.40;;;18.50;1.00;;;;;;5003024;28;20210;-78
2021/06/15 04:53:36;;;;;;;4.60;3.07;;;18.60;1.00;;;;;;4962809;28;21895;-78
2021/06/15 04:56:04;;;;;;;5.40;3.77;;;18.70;1.00;;;;;;4995844;28;20197;-78
2021/06/15 04:58:33;;;;;;;5.70;3.87;;;18.60;1.00;;;;;;4976033;28;20680;-78
2021/06/15 05:01:01;;;;;;;5.63;4.00;;;18.40;1.00;;;;;;4990864;28;20315;-78
2021/06/15 05:03:30;;;;;;;6.60;3.77;;;18.30;1.00;;;;;;4973518;28;20234;-78
2021/06/15 05:06:04;;;;;;;5.40;3.60;;;18.30;1.00;;;;;;4989102;28;20198;-78
2021/06/15 05:08:40;;;;;;;6.00;3.20;;;18.20;1.00;;;;;;5007127;28;20248;-78
2021/06/15 05:11:07;;;;;;;6.53;3.17;;;18.10;1.00;;;;;;5006807;28;20284;-78
2021/06/15 05:13:36;;;;;;;7.63;3.20;;;18.10;1.00;;;;;;4978479;28;20271;-78
2021/06/15 05:16:05;;;;;;;5.27;3.23;;;18.10;1.00;;;;;;4981563;28;20197;-78
2021/06/15 05:18:34;;;;;;;3.83;3.20;;;18.40;1.00;;;;;;4992333;28;20297;-78
2021/06/15 05:21:10;;;;;;;3.30;3.00;;;18.60;1.00;;;;;;4983551;28;20651;-78
2021/06/15 05:23:43;;;;;;;5.03;3.50;;;18.50;1.00;;;;;;4976129;28;20275;-78
2021/06/15 05:26:13;;;;;;;4.63;3.33;;;18.50;1.00;;;;;;5010024;28;20209;-78
2021/06/15 05:28:40;;;;;;;3.20;2.70;;;18.60;1.00;;;;;;4991116;28;20207;-78
2021/06/15 05:31:07;;;;;;;5.07;2.10;;;18.50;99.90;;;;;;5007615;28;20352;-78
2021/06/15 05:33:34;;;;;;;3.23;2.47;;;18.30;1.00;;;;;;4976666;28;20215;-78
2021/06/15 05:36:01;;;;;;;4.43;2.97;;;18.10;99.90;;;;;;4999260;28;20697;-78
2021/06/15 05:38:28;;;;;;;4.83;2.60;;;18.30;99.90;;;;;;4997562;28;20199;-78
2021/06/15 05:40:57;;;;;;;6.77;2.90;;;18.30;99.90;;;;;;5000502;28;20204;-78
2021/06/15 05:43:24;;;;;;;6.17;3.20;;;18.40;1.00;;;;;;4997193;28;20254;-78
2021/06/15 05:45:51;;;;;;;2.93;2.53;;;18.60;99.90;;;;;;5009231;28;20223;-78
2021/06/15 05:48:18;;;;;;;4.07;2.70;;;18.60;99.90;;;;;;5001533;28;20245;-78
2021/06/15 05:50:48;;;;;;;4.53;2.80;;;18.60;99.90;;;;;;5017009;28;20239;-78
2021/06/15 05:53:16;;;;;;;3.03;2.03;;;18.70;1.00;;;;;;4980827;28;20278;-78
2021/06/15 05:55:43;;;;;;;4.13;2.10;;;18.80;99.90;;;;;;5014065;28;20216;-78
2021/06/15 05:58:10;;;;;;;5.17;2.13;;;18.60;99.90;;;;;;5012235;28;20291;-78
2021/06/15 06:00:37;;;;;;;4.37;2.27;;;18.80;1.00;;;;;;4992814;28;20562;-78
2021/06/15 06:03:05;;;;;;;2.97;2.10;;;18.70;1.00;;;;;;4997203;28;20255;-78
2021/06/15 06:08:21;;;;;;;2.83;2.20;;;18.90;99.90;;;;;;5030735;28;20204;-81
2021/06/15 06:10:48;;;;;;;5.90;2.13;;;19.10;1.00;;;;;;4999544;28;20209;-82
2021/06/15 06:13:15;;;;;;;2.97;1.80;;;18.90;1.00;;;;;;5017668;28;20274;-81
2021/06/15 06:15:42;;;;;;;3.80;1.80;;;18.90;1.00;;;;;;4997746;28;20205;-81
2021/06/15 06:18:11;;;;;;;2.37;1.63;;;19.00;1.00;;;;;;5005190;28;20209;-82
2021/06/15 06:20:39;;;;;;;4.13;2.37;;;19.20;99.90;;;;;;5031325;28;20216;-82
2021/06/15 06:23:07;;;;;;;5.43;2.17;;;19.10;1.00;;;;;;5021092;28;20199;-81
2021/06/15 06:25:34;;;;;;;3.20;1.80;;;19.20;1.00;;;;;;5016529;28;20224;-82
2021/06/15 06:28:03;;;;;;;3.77;2.20;;;19.20;1.00;;;;;;5022457;28;20215;-78
2021/06/15 06:30:31;;;;;;;3.03;1.57;;;19.10;1.00;;;;;;5035342;28;20255;-80
2021/06/15 06:32:58;;;;;;;3.10;2.00;;;19.20;1.00;;;;;;5009767;28;20858;-79
2021/06/15 06:35:25;;;;;;;4.70;2.17;;;19.20;99.90;;;;;;5013983;28;20277;-81
2021/06/15 06:37:52;;;;;;;3.80;2.13;;;19.00;1.00;;;;;;4975350;28;20251;-81
2021/06/15 06:40:20;;;;;;;4.77;2.40;;;19.00;1.00;;;;;;4999903;28;20201;-82
2021/06/15 06:42:46;;;;;;;2.80;1.70;;;19.20;99.90;;;;;;5001303;28;20258;-82
2021/06/15 06:45:15;;;;;;;6.40;2.07;;;19.30;1.00;;;;;;5014412;28;20213;-82
2021/06/15 06:47:42;;;;;;;3.63;2.30;;;19.30;99.90;;;;;;5013780;28;20317;-82
2021/06/15 06:50:09;;;;;;;8.80;2.37;;;19.40;1.00;;;;;;5014951;28;20213;-82
2021/06/15 06:52:36;;;;;;;4.63;2.20;;;19.40;99.90;;;;;;5012834;28;20209;-81
2021/06/15 06:55:04;;;;;;;5.53;2.23;;;19.50;99.90;;;;;;5013254;28;20254;-82
2021/06/15 06:57:31;;;;;;;5.07;2.47;;;19.20;99.90;;;;;;4996969;28;20264;-83
2021/06/15 06:59:58;;;;;;;3.00;2.60;;;19.00;99.90;;;;;;5016197;28;20201;-82
2021/06/15 07:02:25;;;;;;;3.80;2.13;;;18.80;99.90;;;;;;4997520;28;20198;-82
2021/06/15 07:04:52;;;;;;;4.47;2.40;;;19.00;1.00;;;;;;5012732;28;20301;-82
2021/06/15 07:07:19;;;;;;;4.50;2.40;;;18.80;21.70;;;;;;5016338;28;20264;-82
2021/06/15 07:09:46;;;;;;;3.53;2.17;;;18.80;99.90;;;;;;5012456;28;20196;-81
2021/06/15 07:12:14;;;;;;;3.83;2.63;;;18.70;99.90;;;;;;5009135;28;20209;-82
2021/06/15 07:14:41;;;;;;;4.90;2.30;;;18.90;1.00;;;;;;5013404;28;20233;-81
2021/06/15 07:17:11;;;;;;;5.83;2.27;;;19.20;1.00;;;;;;5015767;28;20284;-81
2021/06/15 07:19:37;;;;;;;3.00;2.20;;;19.50;78.20;;;;;;5009401;28;20198;-80
2021/06/15 07:22:05;;;;;;;3.90;2.00;;;19.20;1.00;;;;;;5014985;28;20193;-81
2021/06/15 07:24:32;;;;;;;4.23;2.13;;;19.20;1.00;;;;;;5006101;28;20280;-81
2021/06/15 07:27:00;;;;;;;3.30;1.87;;;19.30;1.00;;;;;;4998503;28;20285;-81
2021/06/15 07:29:27;;;;;;;6.00;2.20;;;19.50;1.00;;;;;;5017964;28;20259;-82
2021/06/15 07:31:55;;;;;;;3.55;2.10;;;19.60;1.00;;;;;;5004770;28;20451;-78
2021/06/15 07:34:24;;;;;;;3.67;2.67;;;19.60;1.00;;;;;;4995711;28;20316;-77
2021/06/15 07:36:50;;;;;;;9.00;2.13;;;19.60;1.00;;;;;;5006810;28;20258;-77
2021/06/15 07:39:18;;;;;;;3.20;2.70;;;19.60;1.00;;;;;;5011383;28;20228;-77
2021/06/15 07:41:46;;;;;;;5.90;2.27;;;20.00;99.90;;;;;;5018393;28;20247;-77
2021/06/15 07:44:13;;;;;;;2.67;2.20;;;19.90;99.90;;;;;;5016157;28;20605;-76
2021/06/15 07:46:40;;;;;;;5.80;2.50;;;19.80;1.00;;;;;;5032698;28;20204;-77
2021/06/15 07:49:07;;;;;;;4.38;2.53;;;19.50;99.90;;;;;;5018751;28;20589;-81
2021/06/15 07:51:35;;;;;;;4.83;2.43;;;19.60;1.00;;;;;;5022206;28;20212;-81
2021/06/15 07:54:03;;;;;;;6.20;2.30;;;19.60;99.90;;;;;;5041287;28;20285;-81
2021/06/15 07:56:30;;;;;;;3.90;2.43;;;19.60;1.00;;;;;;5021263;28;20196;-82
2021/06/15 07:58:58;;;;;;;5.37;2.83;;;19.60;1.00;;;;;;5023940;28;20190;-80
2021/06/15 08:01:25;;;;;;;4.00;2.20;;;19.70;99.90;;;;;;5018399;28;20200;-82
2021/06/15 08:03:52;;;;;;;4.27;3.20;;;20.00;99.90;;;;;;5017944;28;20285;-82
2021/06/15 08:06:19;;;;;;;3.40;2.60;;;19.70;1.00;;;;;;5045370;28;20232;-81
2021/06/15 08:08:46;;;;;;;3.50;2.77;;;19.50;1.00;;;;;;5022263;28;20220;-82
2021/06/15 08:11:13;;;;;;;3.67;2.33;;;19.80;1.00;;;;;;5021842;28;20243;-82
2021/06/15 08:13:40;;;;;;;2.83;1.73;;;20.10;99.90;;;;;;5023699;28;20216;-82
2021/06/15 08:16:06;;;;;;;4.87;2.50;;;20.00;99.90;;;;;;5031317;28;20286;-82
2021/06/15 08:18:34;;;;;;;5.70;2.33;;;19.90;1.00;;;;;;5040670;28;20200;-81
2021/06/15 08:21:01;;;;;;;3.97;2.60;;;20.20;99.90;;;;;;5022073;28;20197;-82
2021/06/15 08:23:29;;;;;;;3.07;2.13;;;20.00;99.90;;;;;;5007865;28;20196;-81
2021/06/15 08:25:56;;;;;;;3.50;2.67;;;20.20;1.00;;;;;;5006172;28;20197;-82
2021/06/15 08:28:24;;;;;;;3.77;2.23;;;20.00;1.00;;;;;;5021850;28;20204;-82
2021/06/15 08:30:51;;;;;;;5.07;2.17;;;20.00;1.00;;;;;;5022675;28;20203;-82
2021/06/15 08:33:18;;;;;;;4.80;2.37;;;19.90;1.00;;;;;;5018331;28;20550;-81
2021/06/15 08:35:45;;;;;;;4.13;2.30;;;20.00;99.90;;;;;;5005377;28;20291;-81
2021/06/15 08:38:12;;;;;;;3.20;1.90;;;20.20;1.00;;;;;;5018379;28;20269;-81
2021/06/15 08:40:39;;;;;;;4.00;1.97;;;20.00;22.00;;;;;;4997957;28;20260;-82
2021/06/15 08:43:06;;;;;;;4.00;2.00;;;20.30;1.00;;;;;;5003139;28;20198;-82
2021/06/15 08:45:33;;;;;;;5.93;2.13;;;20.30;1.00;;;;;;4986271;28;20591;-81
2021/06/15 08:48:00;;;;;;;3.90;2.00;;;20.40;99.90;;;;;;5023239;28;20206;-81
2021/06/15 08:50:28;;;;;;;3.60;1.83;;;20.70;99.90;;;;;;5005212;28;20194;-80
2021/06/15 08:52:55;;;;;;;5.87;1.70;;;20.30;1.00;;;;;;5020822;28;20224;-81
2021/06/15 08:55:28;;;;;;;4.00;1.57;;;20.60;1.00;;;;;;5003797;28;20256;-80
2021/06/15 08:58:22;;;;;;;4.00;1.70;;;20.60;1.00;;;;;;5018077;28;20232;-80
2021/06/15 09:00:49;;;;;;;2.83;1.30;;;20.40;1.00;;;;;;5023025;28;20250;-80
2021/06/15 09:03:16;;;;;;;4.47;1.83;;;20.60;1.00;;;;;;5006461;28;20229;-81
2021/06/15 09:05:43;;;;;;;1.87;1.63;;;20.80;1.00;;;;;;5002800;28;20212;-80
2021/06/15 09:08:11;;;;;;;3.83;1.93;;;20.90;1.00;;;;;;5019146;28;20193;-80
2021/06/15 09:10:48;;;;;;;4.83;2.13;;;20.90;1.00;;;;;;4995593;28;20279;-80
2021/06/15 09:13:31;;;;;;;3.43;1.80;;;20.60;1.00;;;;;;5003792;28;20232;-79
2021/06/15 09:15:58;;;;;;;5.47;2.53;;;20.70;31.40;;;;;;5034601;28;20185;-80
2021/06/15 09:18:29;;;;;;;3.47;1.83;;;21.10;1.00;;;;;;4998592;28;20208;-80
2021/06/15 09:20:59;;;;;;;2.83;2.07;;;20.50;1.00;;;;;;5018921;28;20642;-80
2021/06/15 09:23:34;;;;;;;2.67;1.90;;;20.20;99.90;;;;;;5013725;28;20193;-80
2021/06/15 09:26:02;;;;;;;4.70;1.87;;;20.20;1.00;;;;;;5011149;28;20251;-80
2021/06/15 09:28:30;;;;;;;7.03;2.00;;;20.50;99.90;;;;;;4992813;28;20229;-81
2021/06/15 09:31:08;;;;;;;4.03;1.90;;;21.00;1.00;;;;;;5012129;28;20338;-80
2021/06/15 09:33:39;;;;;;;2.10;1.90;;;21.00;1.00;;;;;;5035860;28;20200;-80
2021/06/15 09:36:28;;;;;;;3.07;2.03;;;21.20;1.00;;;;;;5008952;28;20242;-80
2021/06/15 09:39:00;;;;;;;4.87;1.43;;;21.90;1.00;;;;;;5035293;28;20439;-80
2021/06/15 09:41:35;;;;;;;4.17;1.43;;;21.90;47.20;;;;;;5015705;28;20251;-79
2021/06/15 09:44:29;;;;;;;4.10;1.30;;;22.00;9.20;;;;;;5001468;28;20267;-81
2021/06/15 09:47:05;;;;;;;3.67;1.53;;;22.20;1.00;;;;;;5015642;28;20197;-81
2021/06/15 09:49:44;;;;;;;3.33;1.73;;;21.90;1.00;;;;;;5017045;28;20308;-81
2021/06/15 09:52:20;;;;;;;2.97;1.50;;;21.60;1.00;;;;;;5015306;28;20276;-81
2021/06/15 09:54:47;;;;;;;2.67;1.40;;;22.20;1.00;;;;;;5015714;28;20208;-80
2021/06/15 09:57:20;;;;;;;3.23;1.33;;;22.20;1.00;;;;;;5014919;28;20279;-81
2021/06/15 10:00:01;;;;;;;6.10;1.60;;;22.60;1.00;;;;;;5013125;28;20205;-81
2021/06/15 10:02:29;;;;;;;3.10;1.07;;;22.50;1.00;;;;;;5008703;28;20273;-82
2021/06/15 10:04:56;;;;;;;4.10;1.43;;;22.80;1.00;;;;;;5016767;28;20198;-82
2021/06/15 10:07:29;;;;;;;4.23;1.20;;;22.90;1.00;;;;;;5009263;28;20327;-83
2021/06/15 10:09:57;;;;;;;3.00;1.60;;;22.80;1.00;;;;;;5012774;28;20299;-83
2021/06/15 10:12:26;;;;;;;3.17;1.27;;;22.80;1.00;;;;;;5018218;28;20232;-82
2021/06/15 10:14:56;;;;;;;3.57;1.67;;;22.80;1.00;;;;;;5000462;28;20272;-83
2021/06/15 10:17:24;;;;;;;3.90;1.27;;;22.60;1.00;;;;;;5015934;28;20224;-82
2021/06/15 10:19:54;;;;;;;4.00;1.67;;;22.50;1.00;;;;;;5000081;28;20212;-83
2021/06/15 10:22:22;;;;;;;2.97;1.53;;;23.00;99.90;;;;;;5017357;28;20958;-83
2021/06/15 10:24:49;;;;;;;4.63;1.60;;;23.00;99.90;;;;;;5016734;28;20205;-82
2021/06/15 10:27:16;;;;;;;3.92;1.73;;;23.20;99.90;;;;;;4989742;28;20855;-76
2021/06/15 10:29:52;;;;;;;1.97;1.20;;;23.30;99.90;;;;;;5007917;28;20499;-76
2021/06/15 10:32:21;;;;;;;2.30;1.33;;;23.90;99.90;;;;;;5007586;28;20369;-74
2021/06/15 10:35:13;;;;;;;2.13;1.57;;;24.20;99.90;;;;;;5007826;28;20336;-75
2021/06/15 10:37:42;;;;;;;3.10;1.37;;;24.10;99.90;;;;;;5004091;28;20542;-75
2021/06/15 10:40:12;;;;;;;2.53;1.37;;;24.10;99.90;;;;;;5007149;28;20204;-75
2021/06/15 10:43:02;;;;;;;3.10;1.47;;;24.40;99.90;;;;;;5000476;28;20207;-77
2021/06/15 10:45:30;;;;;;;2.97;1.60;;;24.70;99.90;;;;;;5011770;28;20302;-74
2021/06/15 10:48:06;;;;;;;3.33;1.20;;;25.10;99.90;;;;;;5009221;28;20763;-74
2021/06/15 10:50:47;;;;;;;1.70;1.03;;;25.10;99.90;;;;;;5009734;28;20250;-74
2021/06/15 10:53:16;;;;;;;3.10;1.03;;;25.40;99.90;;;;;;5025614;28;20269;-74
2021/06/15 10:55:51;;;;;;;1.80;0.93;;;25.50;99.90;;;;;;5010567;28;20808;-75
2021/06/15 10:58:36;;;;;;;1.10;0.67;;;25.30;99.90;;;;;;5009714;28;20251;-74
2021/06/15 11:01:18;;;;;;;2.53;1.27;;;25.40;99.90;;;;;;5025149;28;20205;-74
2021/06/15 11:04:08;;;;;;;1.97;0.97;;;25.30;99.90;;;;;;5023967;28;20234;-76
2021/06/15 11:06:34;;;;;;;4.87;1.70;;;25.20;99.90;;;;;;5005699;28;20615;-74
2021/06/15 11:09:17;;;;;;;4.23;1.50;;;25.10;99.90;;;;;;5012056;28;20226;-75
2021/06/15 11:12:04;;;;;;;6.47;1.60;;;24.70;99.90;;;;;;5031203;28;20543;-74
2021/06/15 11:14:31;;;;;;;3.63;1.63;;;24.70;99.90;;;;;;5024004;28;20214;-76
2021/06/15 11:17:00;;;;;;;4.20;1.30;;;24.70;99.90;;;;;;5027485;28;20209;-75
2021/06/15 11:19:33;;;;;;;2.13;1.47;;;25.20;99.90;;;;;;5007585;28;21527;-76
2021/06/15 11:22:07;;;;;;;3.00;1.60;;;25.30;99.90;;;;;;5023588;28;20609;-74
2021/06/15 11:24:39;;;;;;;3.77;1.63;;;25.40;99.90;;;;;;5024429;28;20197;-74
2021/06/15 11:27:18;;;;;;;2.77;1.37;;;24.80;99.90;;;;;;5010631;28;20202;-74
2021/06/15 11:29:48;;;;;;;2.97;1.47;;;24.80;99.90;;;;;;5024176;28;20301;-75
2021/06/15 11:32:17;;;;;;;2.97;1.67;;;24.40;99.90;;;;;;5025550;28;20271;-75
2021/06/15 11:34:58;;;;;;;5.60;2.00;;;24.70;99.90;;;;;;5000823;28;20274;-75
2021/06/15 11:37:37;;;;;;;5.07;1.80;;;25.00;99.90;;;;;;5005246;28;20208;-76
2021/06/15 11:40:25;;;;;;;3.70;1.90;;;24.60;99.90;;;;;;5004081;28;20643;-76
2021/06/15 11:42:53;;;;;;;5.27;2.20;;;25.70;99.90;;;;;;5004886;28;20351;-76
2021/06/15 11:45:23;;;;;;;3.77;1.60;;;26.00;99.90;;;;;;5007572;28;20565;-76
2021/06/15 11:47:55;;;;;;;2.77;1.40;;;26.80;99.90;;;;;;5003583;28;20211;-76
2021/06/15 11:50:40;;;;;;;3.47;1.70;;;26.10;99.90;;;;;;5002882;28;20232;-76
2021/06/15 11:53:13;;;;;;;3.40;1.87;;;27.50;99.90;;;;;;5007834;28;20197;-74
2021/06/15 11:55:50;;;;;;;2.10;1.40;;;28.00;97.90;;;;;;5006937;28;20346;-75
2021/06/15 11:58:20;;;;;;;2.30;1.33;;;28.10;95.70;;;;;;5003106;28;20822;-75
2021/06/15 12:00:54;;;;;;;3.07;1.37;;;27.80;91.00;;;;;;5005987;28;20602;-76
2021/06/15 12:03:23;;;;;;;3.07;1.77;;;27.40;94.30;;;;;;5021757;28;20212;-74
2021/06/15 12:05:58;;;;;;;4.93;1.40;;;27.90;95.10;;;;;;5004274;28;20231;-75
2021/06/15 12:08:33;;;;;;;4.27;1.20;;;29.00;92.20;;;;;;5004901;28;20204;-76
2021/06/15 12:11:01;;;;;;;2.47;0.98;;;29.70;86.50;;;;;;5001179;28;20305;-74
2021/06/15 12:13:32;;;;;;;3.92;1.35;;;28.90;61.10;;;;;;5005466;28;20284;-76
2021/06/15 12:16:09;;;;;;;2.58;1.40;;;28.40;63.30;;;;;;5008752;28;20209;-76
2021/06/15 12:18:44;;;;;;;1.67;0.90;;;27.80;62.20;;;;;;5005557;28;20797;-76
2021/06/15 12:21:22;;;;;;;2.53;1.00;;;27.80;67.70;;;;;;5012471;28;20208;-76
2021/06/15 12:23:54;;;;;;;2.65;1.05;;;27.20;72.10;;;;;;5003692;28;20574;-77
2021/06/15 12:26:29;;;;;;;1.17;0.70;;;27.50;58.00;;;;;;5001166;28;20201;-76
2021/06/15 12:28:59;;;;;;;4.40;1.13;;;27.80;59.90;;;;;;5004767;28;20236;-77
2021/06/15 12:31:33;;;;;;;2.60;1.17;;;28.20;60.40;;;;;;4996656;28;20248;-77
2021/06/15 12:34:21;;;;;;;2.75;1.10;;;28.30;54.40;;;;;;5012232;28;20278;-77
2021/06/15 12:36:51;;;;;;;3.25;1.00;;;28.50;59.60;;;;;;5009152;28;20244;-76
2021/06/15 12:39:39;;;;;;;3.58;1.25;;;28.20;52.60;;;;;;5017152;28;20348;-77
2021/06/15 12:42:14;;;;;;;5.00;0.90;;;27.50;87.70;;;;;;5008069;28;20201;-77
2021/06/15 12:44:42;;;;;;;1.85;1.05;;;28.10;59.30;;;;;;5013241;28;20301;-77
2021/06/15 12:47:12;;;;;;;1.88;0.93;;;27.60;49.00;;;;;;5004915;28;20584;-77
2021/06/15 12:49:53;;;;;;;3.90;1.02;;;27.50;51.70;;;;;;5010327;28;20291;-77
2021/06/15 12:52:30;;;;;;;3.17;1.42;;;26.30;55.40;;;;;;5012581;28;20225;-77
2021/06/15 12:55:11;;;;;;;3.83;1.10;;;25.20;75.60;;;;;;5008969;28;20240;-77
2021/06/15 12:57:38;;;;;;;3.10;1.03;;;25.60;90.00;;;;;;5011300;28;20197;-78
2021/06/15 13:00:08;;;;;;;4.40;1.30;;;26.90;85.70;;;;;;4998169;28;20710;-77
2021/06/15 13:02:39;;;;;;;1.70;0.80;;;26.90;72.30;;;;;;5011372;28;20248;-78
2021/06/15 13:05:14;;;;;;;2.40;0.90;;;27.60;75.10;;;;;;5016683;28;20205;-77
2021/06/15 13:07:55;;;;;;;2.80;1.20;;;27.50;65.90;;;;;;5008064;28;20227;-77
2021/06/15 13:10:23;;;;;;;3.77;1.00;;;27.60;62.90;;;;;;5007367;28;20628;-77
2021/06/15 13:12:53;;;;;;;3.30;1.07;;;28.30;72.80;;;;;;5008406;28;20290;-78